createdAt,value
2022-10-17T07:07:41.438Z,978.99
2022-10-17T07:08:38.411Z,978.99
2022-10-17T07:09:39.045Z,979.01
2022-10-17T07:10:39.040Z,979.03
2022-10-17T07:11:38.572Z,979.09
2022-10-17T07:12:38.616Z,979.10
2022-10-17T07:13:39.419Z,979.12
2022-10-17T07:14:39.543Z,979.13
2022-10-17T07:15:39.544Z,979.09
2022-10-17T07:16:38.802Z,979.09
2022-10-17T07:17:38.841Z,979.13
2022-10-17T07:18:38.877Z,979.12
2022-10-17T07:19:38.913Z,979.11
2022-10-17T07:20:38.985Z,979.11
2022-10-17T07:21:39.423Z,979.11
2022-10-17T07:22:39.073Z,979.12
2022-10-17T07:23:39.099Z,979.13
2022-10-17T07:48:18.677Z,979.46
2022-10-17T07:49:17.149Z,979.47
2022-10-17T07:50:18.118Z,979.51
2022-10-17T07:51:17.164Z,979.54
2022-10-17T07:52:17.253Z,979.55
2022-10-17T07:53:17.275Z,979.57
2022-10-17T07:54:17.326Z,979.57
2022-10-17T07:55:17.331Z,979.54
2022-10-17T07:56:17.372Z,979.55
2022-10-17T07:57:17.422Z,979.59
2022-10-17T07:58:18.088Z,979.59
2022-10-17T07:59:17.552Z,979.60
2022-10-17T08:00:17.575Z,979.55
2022-10-17T08:01:17.624Z,979.55
2022-10-17T08:02:17.681Z,979.57
2022-10-17T08:03:17.738Z,979.59
2022-10-17T08:04:17.810Z,979.58
2022-10-17T08:05:17.867Z,979.61
2022-10-17T08:06:17.888Z,979.64
2022-10-17T08:07:23.024Z,979.70
2022-10-17T08:08:17.985Z,979.67
2022-10-17T08:09:18.038Z,979.68
2022-10-17T08:10:18.126Z,979.70
2022-10-17T08:11:18.141Z,979.67
2022-10-17T08:12:18.191Z,979.67
2022-10-17T08:13:18.248Z,979.67
2022-10-17T08:14:18.306Z,979.68
2022-10-17T08:15:18.378Z,979.69
2022-10-17T08:16:18.402Z,979.67
2022-10-17T08:17:18.488Z,979.71
2022-10-17T08:18:18.504Z,979.67
2022-10-17T08:19:19.081Z,979.70
2022-10-17T08:20:18.643Z,979.68
2022-10-17T08:21:18.675Z,979.71
2022-10-17T08:22:18.739Z,979.71
2022-10-17T08:23:18.771Z,979.69
2022-10-17T08:24:18.823Z,979.77
2022-10-17T08:25:18.872Z,979.72
2022-10-17T08:26:18.931Z,979.78
2022-10-17T08:27:19.006Z,979.75
2022-10-17T08:28:19.069Z,979.73
2022-10-17T08:29:19.083Z,979.72
2022-10-17T08:30:19.144Z,979.72
2022-10-17T08:31:40.220Z,979.75
2022-10-17T08:32:19.263Z,979.77
2022-10-17T08:33:19.335Z,979.75
2022-10-17T08:34:19.349Z,979.75
2022-10-17T08:35:19.402Z,979.76
2022-10-17T08:36:19.455Z,979.75
2022-10-17T08:37:19.507Z,979.74
2022-10-17T08:38:21.040Z,979.78
2022-10-17T08:39:19.611Z,979.78
2022-10-17T08:40:19.665Z,979.73
2022-10-17T08:41:19.718Z,979.74
2022-10-17T08:42:19.798Z,979.77
2022-10-17T08:43:19.857Z,979.76
2022-10-17T08:44:19.908Z,979.81
2022-10-17T08:45:19.923Z,979.84
2022-10-17T08:46:20.224Z,979.88
2022-10-17T08:47:20.034Z,979.88
2022-10-17T08:48:20.154Z,979.85
2022-10-17T08:49:20.269Z,979.84
2022-10-17T08:50:20.327Z,979.86
2022-10-17T08:51:21.118Z,979.84
2022-10-17T08:52:28.778Z,979.82
2022-10-17T08:53:20.396Z,979.83
2022-10-17T08:54:20.514Z,979.82
2022-10-17T08:55:20.546Z,979.83
2022-10-17T09:14:31.005Z,979.94
2022-10-17T09:15:31.026Z,979.90
2022-10-17T09:16:31.078Z,979.92
